^^
Your Local Weather - Clay, NY Station Historical Data
 
Daily Summary for November 16, 2018 Units:  English    Metric   Both
« Previous Day
Next Day »
Daily Weekly Monthly Yearly Custom
  Current: High: Low: Average:
Temperature: 34.5 °F 34.6 °F 23.6 °F 30.2 °F
Dew Point: 31.9 °F 32.4 °F 21.6 °F 28.5 °F
Humidity: 90% 96% 90% 93%
Wind Speed: 5.0mph 6.0mph 0.0mph 2.1mph
Wind Gust: 8.0mph 13.0mph - -
WindWest - - SSW
Pressure: 29.84 in 29.90 in 29.67 in -
Precipitation: 0.01 in      
Historical Graphs
 
 
Tabular Data for November 16, 2018
Time Temperature Dew Point Pressure Wind Wind Speed Wind Gust Humidity Rainfall Rate (Hourly) solar
00:04 23.6 °F 21.6 °F 29.90 in ENE 4.0 mph 9.0 mph 92% 0.00 in 0.00 W/m2
00:08 23.7 °F 21.7 °F 29.89 in ESE 4.0 mph 9.0 mph 92% 0.00 in 0.00 W/m2
00:14 23.8 °F 21.8 °F 29.88 in ENE 5.0 mph 8.0 mph 92% 0.00 in 0.00 W/m2
00:18 24.0 °F 22.0 °F 29.88 in NE 5.0 mph 10.0 mph 92% 0.00 in 0.00 W/m2
00:24 24.3 °F 22.3 °F 29.87 in ENE 5.0 mph 5.0 mph 92% 0.00 in 0.00 W/m2
00:28 24.5 °F 22.5 °F 29.86 in East 6.0 mph 6.0 mph 92% 0.00 in 0.00 W/m2
00:34 24.9 °F 22.9 °F 29.86 in East 5.0 mph 9.0 mph 92% 0.00 in 0.00 W/m2
00:38 25.3 °F 23.3 °F 29.85 in NNE 6.0 mph 13.0 mph 92% 0.00 in 0.00 W/m2
00:44 25.7 °F 23.7 °F 29.84 in NE 6.0 mph 6.0 mph 92% 0.00 in 0.00 W/m2
00:48 25.9 °F 23.9 °F 29.84 in ESE 6.0 mph 7.0 mph 92% 0.00 in 0.00 W/m2
00:54 26.0 °F 24.0 °F 29.84 in ENE 6.0 mph 6.0 mph 92% 0.00 in 0.00 W/m2
00:58 26.0 °F 24.0 °F 29.83 in ENE 6.0 mph 9.0 mph 92% 0.00 in 0.00 W/m2
01:04 26.1 °F 24.1 °F 29.84 in East 6.0 mph 6.0 mph 92% 0.00 in 0.00 W/m2
01:08 26.0 °F 24.0 °F 29.84 in East 4.0 mph 7.0 mph 92% 0.00 in 0.00 W/m2
01:14 26.0 °F 24.0 °F 29.84 in SSE 4.0 mph 4.0 mph 92% 0.00 in 0.00 W/m2
01:18 26.0 °F 24.0 °F 29.84 in East 3.0 mph 4.0 mph 92% 0.00 in 0.00 W/m2
01:22 25.9 °F 23.9 °F 29.84 in NE 3.0 mph 7.0 mph 92% 0.00 in 0.00 W/m2
01:30 25.7 °F 23.7 °F 29.83 in ENE 3.0 mph 7.0 mph 92% 0.00 in 0.00 W/m2
01:34 25.7 °F 23.7 °F 29.83 in ESE 3.0 mph 7.0 mph 92% 0.00 in 0.00 W/m2
01:38 25.5 °F 23.5 °F 29.83 in East 3.0 mph 7.0 mph 92% 0.00 in 0.00 W/m2
01:44 25.4 °F 23.4 °F 29.83 in ENE 4.0 mph 4.0 mph 92% 0.00 in 0.00 W/m2
01:48 25.4 °F 23.4 °F 29.83 in ENE 4.0 mph 4.0 mph 92% 0.00 in 0.00 W/m2
01:54 25.3 °F 23.3 °F 29.83 in NNE 3.0 mph 12.0 mph 92% 0.00 in 0.00 W/m2
01:58 25.4 °F 23.4 °F 29.82 in SE 5.0 mph 12.0 mph 92% 0.00 in 0.00 W/m2
02:04 25.3 °F 23.3 °F 29.82 in ENE 5.0 mph 5.0 mph 92% 0.00 in 0.00 W/m2
02:08 25.3 °F 23.3 °F 29.82 in East 3.0 mph 7.0 mph 92% 0.00 in 0.00 W/m2
02:14 25.4 °F 23.4 °F 29.82 in East 4.0 mph 5.0 mph 92% 0.00 in 0.00 W/m2
02:18 25.5 °F 23.5 °F 29.81 in ENE 4.0 mph 7.0 mph 92% 0.00 in 0.00 W/m2
02:24 25.5 °F 23.5 °F 29.81 in ENE 4.0 mph 9.0 mph 92% 0.00 in 0.00 W/m2
02:28 25.6 °F 23.6 °F 29.80 in ENE 5.0 mph 9.0 mph 92% 0.00 in 0.00 W/m2
02:32 25.6 °F 23.6 °F 29.80 in ESE 5.0 mph 5.0 mph 92% 0.00 in 0.00 W/m2
02:38 25.6 °F 23.6 °F 29.80 in ESE 6.0 mph 7.0 mph 92% 0.00 in 0.00 W/m2
02:44 25.5 °F 23.5 °F 29.80 in ENE 5.0 mph 6.0 mph 92% 0.00 in 0.00 W/m2
02:48 25.5 °F 23.5 °F 29.80 in ESE 3.0 mph 6.0 mph 92% 0.00 in 0.00 W/m2
02:54 25.6 °F 23.6 °F 29.79 in ENE 2.0 mph 3.0 mph 92% 0.00 in 0.00 W/m2
03:00 25.7 °F 24.0 °F 29.80 in East 2.0 mph 3.0 mph 93% 0.00 in 0.00 W/m2
03:04 25.9 °F 24.2 °F 29.80 in East 2.0 mph 5.0 mph 93% 0.00 in 0.00 W/m2
03:08 26.0 °F 24.3 °F 29.80 in ENE 2.0 mph 5.0 mph 93% 0.00 in 0.00 W/m2
03:14 26.2 °F 24.5 °F 29.80 in NE 1.0 mph 2.0 mph 93% 0.00 in 0.00 W/m2
03:18 26.4 °F 24.7 °F 29.80 in ESE 1.0 mph 2.0 mph 93% 0.00 in 0.00 W/m2
03:24 26.6 °F 24.8 °F 29.80 in ENE 1.0 mph 3.0 mph 93% 0.00 in 0.00 W/m2
03:30 26.6 °F 24.8 °F 29.79 in East 1.0 mph 1.0 mph 93% 0.00 in 0.00 W/m2
03:34 26.8 °F 25.0 °F 29.79 in East 1.0 mph 1.0 mph 93% 0.00 in 0.00 W/m2
03:38 26.8 °F 25.0 °F 29.79 in East 1.0 mph 2.0 mph 93% 0.00 in 0.00 W/m2
03:44 26.8 °F 25.0 °F 29.79 in East 1.0 mph 5.0 mph 93% 0.00 in 0.00 W/m2
03:48 26.9 °F 25.1 °F 29.78 in ENE 2.0 mph 5.0 mph 93% 0.00 in 0.00 W/m2
03:54 26.9 °F 25.1 °F 29.78 in NNE 2.0 mph 2.0 mph 93% 0.00 in 0.00 W/m2
03:58 27.0 °F 25.2 °F 29.78 in ENE 1.0 mph 2.0 mph 93% 0.00 in 0.00 W/m2
04:04 26.9 °F 25.4 °F 29.77 in NE 1.0 mph 2.0 mph 94% 0.00 in 0.00 W/m2
04:08 27.0 °F 25.5 °F 29.77 in NE 1.0 mph 2.0 mph 94% 0.00 in 0.00 W/m2
04:14 27.0 °F 25.5 °F 29.78 in Calm   1.0 mph 94% 0.00 in 0.00 W/m2
04:20 27.1 °F 25.6 °F 29.78 in Calm     94% 0.00 in 0.00 W/m2
04:24 27.1 °F 25.6 °F 29.78 in Calm     94% 0.00 in 0.00 W/m2
04:28 27.2 °F 25.7 °F 29.78 in Calm     94% 0.00 in 0.00 W/m2
04:34 27.3 °F 25.8 °F 29.78 in Calm     94% 0.00 in 0.00 W/m2
04:38 27.2 °F 25.7 °F 29.77 in Calm     94% 0.00 in 0.00 W/m2
04:44 27.2 °F 25.7 °F 29.77 in Calm     94% 0.00 in 0.00 W/m2
04:48 27.1 °F 25.6 °F 29.77 in Calm     94% 0.00 in 0.00 W/m2
04:54 27.1 °F 25.6 °F 29.76 in Calm     94% 0.00 in 0.00 W/m2
04:58 27.0 °F 25.5 °F 29.76 in Calm     94% 0.00 in 0.00 W/m2
05:04 27.0 °F 25.5 °F 29.76 in Calm     94% 0.00 in 0.00 W/m2
05:08 27.0 °F 25.5 °F 29.76 in Calm     94% 0.00 in 0.00 W/m2
05:14 26.9 °F 25.4 °F 29.75 in Calm     94% 0.00 in 0.00 W/m2
05:18 26.8 °F 25.3 °F 29.75 in Calm     94% 0.00 in 0.00 W/m2
05:24 26.8 °F 25.3 °F 29.75 in Calm     94% 0.00 in 0.00 W/m2
05:28 26.8 °F 25.3 °F 29.75 in Calm     94% 0.00 in 0.00 W/m2
05:34 26.8 °F 25.3 °F 29.75 in Calm     94% 0.00 in 0.00 W/m2
05:36 26.8 °F 25.3 °F 29.75 in Calm     94% 0.00 in 0.00 W/m2
05:44 26.8 °F 25.3 °F 29.74 in Calm     94% 0.00 in 0.00 W/m2
05:48 26.8 °F 25.3 °F 29.74 in Calm     94% 0.00 in 0.00 W/m2
05:54 26.8 °F 25.3 °F 29.74 in Calm     94% 0.00 in 0.00 W/m2
05:58 26.8 °F 25.3 °F 29.74 in Calm     94% 0.00 in 0.00 W/m2
06:04 26.9 °F 25.4 °F 29.74 in Calm     94% 0.00 in 0.00 W/m2
06:08 26.8 °F 25.3 °F 29.73 in Calm     94% 0.00 in 0.00 W/m2
06:12 26.9 °F 25.4 °F 29.73 in Calm     94% 0.00 in 0.00 W/m2
06:18 26.8 °F 25.3 °F 29.73 in Calm     94% 0.00 in 0.00 W/m2
06:24 26.8 °F 25.3 °F 29.73 in Calm     94% 0.00 in 0.00 W/m2
06:28 26.9 °F 25.4 °F 29.73 in Calm     94% 0.00 in 0.00 W/m2
06:34 26.9 °F 25.4 °F 29.72 in Calm     94% 0.00 in 0.00 W/m2
06:38 26.9 °F 25.4 °F 29.72 in Calm   1.0 mph 94% 0.00 in 0.00 W/m2
06:44 27.2 °F 26.0 °F 29.72 in Calm   1.0 mph 95% 0.00 in 0.00 W/m2
06:48 27.3 °F 25.8 °F 29.72 in Calm     94% 0.00 in 0.00 W/m2
06:52 27.3 °F 25.8 °F 29.72 in Calm     94% 0.00 in 0.00 W/m2
06:58 27.4 °F 25.9 °F 29.72 in Calm   2.0 mph 94% 0.00 in 0.00 W/m2
07:04 27.5 °F 26.0 °F 29.71 in Calm     94% 0.00 in 0.00 W/m2
07:08 27.5 °F 26.0 °F 29.71 in Calm     94% 0.00 in 0.00 W/m2
07:14 27.5 °F 26.0 °F 29.70 in Calm   1.0 mph 94% 0.00 in 0.00 W/m2
07:16 27.5 °F 26.0 °F 29.70 in Calm   1.0 mph 94% 0.00 in 0.00 W/m2
07:24 27.5 °F 26.0 °F 29.70 in Calm   1.0 mph 94% 0.00 in 5.00 W/m2
07:30 27.5 °F 26.0 °F 29.70 in Calm     94% 0.00 in 7.00 W/m2
07:34 27.6 °F 26.1 °F 29.70 in Calm   1.0 mph 94% 0.00 in 7.00 W/m2
07:38 27.7 °F 26.2 °F 29.70 in Calm   1.0 mph 94% 0.00 in 9.00 W/m2
07:44 27.7 °F 26.2 °F 29.70 in Calm   3.0 mph 94% 0.00 in 11.00 W/m2
07:48 27.7 °F 26.2 °F 29.69 in Calm   3.0 mph 94% 0.00 in 11.00 W/m2
07:54 27.7 °F 26.2 °F 29.69 in Calm   3.0 mph 94% 0.00 in 11.00 W/m2
07:58 27.8 °F 26.3 °F 29.70 in SE 1.0 mph 3.0 mph 94% 0.00 in 11.00 W/m2
08:04 27.8 °F 26.3 °F 29.70 in SE 1.0 mph 1.0 mph 94% 0.00 in 9.00 W/m2
08:08 27.8 °F 26.3 °F 29.70 in SE 1.0 mph 3.0 mph 94% 0.00 in 11.00 W/m2
08:14 27.9 °F 26.4 °F 29.70 in SE 1.0 mph 1.0 mph 94% 0.00 in 14.00 W/m2
08:18 27.9 °F 26.4 °F 29.71 in Calm   1.0 mph 94% 0.00 in 16.00 W/m2
08:24 28.0 °F 26.5 °F 29.71 in Calm   3.0 mph 94% 0.00 in 16.00 W/m2
08:28 28.0 °F 26.5 °F 29.71 in Calm   3.0 mph 94% 0.00 in 18.00 W/m2
08:32 28.1 °F 26.6 °F 29.71 in SE 1.0 mph 1.0 mph 94% 0.00 in 21.00 W/m2
08:38 28.2 °F 26.7 °F 29.70 in Calm   2.0 mph 94% 0.00 in 25.00 W/m2
08:44 28.2 °F 26.7 °F 29.70 in Calm     94% 0.00 in 23.00 W/m2
08:48 28.4 °F 26.9 °F 29.70 in Calm   1.0 mph 94% 0.00 in 25.00 W/m2
08:54 28.4 °F 26.9 °F 29.71 in Calm     94% 0.00 in 18.00 W/m2
09:00 28.5 °F 27.0 °F 29.71 in Calm   2.0 mph 94% 0.00 in 23.00 W/m2
09:04 28.6 °F 27.1 °F 29.70 in Calm   2.0 mph 94% 0.00 in 30.00 W/m2
09:08 28.7 °F 27.2 °F 29.70 in Calm   2.0 mph 94% 0.00 in 26.00 W/m2
09:14 28.8 °F 27.3 °F 29.70 in Calm     94% 0.00 in 32.00 W/m2
09:18 28.9 °F 27.4 °F 29.71 in Calm   1.0 mph 94% 0.00 in 23.00 W/m2
09:24 28.9 °F 27.4 °F 29.70 in SW 1.0 mph 1.0 mph 94% 0.00 in 25.00 W/m2
09:28 29.0 °F 27.5 °F 29.70 in SW 1.0 mph 1.0 mph 94% 0.00 in 21.00 W/m2
09:34 28.9 °F 27.4 °F 29.70 in SW 1.0 mph 1.0 mph 94% 0.00 in 28.00 W/m2
09:38 28.9 °F 27.4 °F 29.70 in Calm   2.0 mph 94% 0.00 in 30.00 W/m2
09:44 29.0 °F 27.5 °F 29.70 in Calm     94% 0.00 in 28.00 W/m2
09:48 29.1 °F 27.6 °F 29.70 in Calm     94% 0.00 in 42.00 W/m2
09:54 29.2 °F 27.7 °F 29.70 in Calm   2.0 mph 94% 0.00 in 39.00 W/m2
09:58 29.2 °F 27.7 °F 29.70 in SW 1.0 mph 2.0 mph 94% 0.00 in 44.00 W/m2
10:04 29.3 °F 27.8 °F 29.70 in SW 1.0 mph 2.0 mph 94% 0.00 in 40.00 W/m2
10:08 29.3 °F 27.8 °F 29.70 in SW 1.0 mph 2.0 mph 94% 0.00 in 35.00 W/m2
10:14 29.5 °F 28.0 °F 29.70 in SW 1.0 mph 1.0 mph 94% 0.00 in 33.00 W/m2
10:16 29.5 °F 28.0 °F 29.70 in Calm   1.0 mph 94% 0.00 in 33.00 W/m2
10:24 29.5 °F 28.0 °F 29.70 in WSW 1.0 mph 2.0 mph 94% 0.00 in 28.00 W/m2
10:28 29.5 °F 28.0 °F 29.70 in WSW 1.0 mph 2.0 mph 94% 0.00 in 28.00 W/m2
10:34 29.7 °F 28.2 °F 29.70 in Calm     94% 0.00 in 28.00 W/m2
10:38 29.7 °F 28.2 °F 29.70 in Calm   3.0 mph 94% 0.00 in 26.00 W/m2
10:44 29.7 °F 28.2 °F 29.70 in WSW 1.0 mph 1.0 mph 94% 0.00 in 26.00 W/m2
10:50 29.8 °F 28.3 °F 29.70 in Calm     94% 0.00 in 26.00 W/m2
10:54 29.9 °F 28.4 °F 29.70 in Calm   2.0 mph 94% 0.00 in 26.00 W/m2
10:58 29.9 °F 28.4 °F 29.70 in Calm   2.0 mph 94% 0.00 in 32.00 W/m2
11:04 30.0 °F 28.5 °F 29.69 in Calm     94% 0.00 in 40.00 W/m2
11:08 30.2 °F 28.9 °F 29.69 in Calm     95% 0.00 in 69.00 W/m2
11:14 30.6 °F 29.3 °F 29.68 in Calm     95% 0.00 in 70.00 W/m2
11:18 30.8 °F 29.5 °F 29.68 in Calm   1.0 mph 95% 0.00 in 51.00 W/m2
11:24 30.9 °F 29.4 °F 29.68 in Calm     94% 0.00 in 30.00 W/m2
11:30 30.9 °F 29.4 °F 29.68 in Calm     94% 0.00 in 28.00 W/m2
11:34 30.8 °F 29.3 °F 29.68 in Calm   2.0 mph 94% 0.00 in 32.00 W/m2
11:38 30.9 °F 29.4 °F 29.68 in Calm   2.0 mph 94% 0.00 in 28.00 W/m2
11:44 30.9 °F 29.4 °F 29.68 in Calm     94% 0.00 in 26.00 W/m2
11:48 30.9 °F 29.6 °F 29.68 in Calm   3.0 mph 95% 0.00 in 23.00 W/m2
11:54 31.0 °F 29.7 °F 29.68 in WSW 1.0 mph 1.0 mph 95% 0.00 in 26.00 W/m2
11:58 31.1 °F 29.8 °F 29.68 in WSW 1.0 mph 1.0 mph 95% 0.00 in 30.00 W/m2
12:04 31.2 °F 29.9 °F 29.68 in Calm   2.0 mph 95% 0.00 in 35.00 W/m2
12:10 31.2 °F 29.9 °F 29.68 in WSW 1.0 mph 3.0 mph 95% 0.00 in 28.00 W/m2
12:14 31.3 °F 30.0 °F 29.68 in WSW 1.0 mph 3.0 mph 95% 0.00 in 26.00 W/m2
12:18 31.3 °F 30.0 °F 29.68 in Calm   3.0 mph 95% 0.00 in 26.00 W/m2
12:24 31.3 °F 30.0 °F 29.67 in Calm   1.0 mph 95% 0.00 in 33.00 W/m2
12:28 31.4 °F 30.1 °F 29.67 in Calm   2.0 mph 95% 0.00 in 37.00 W/m2
12:34 31.4 °F 30.1 °F 29.67 in Calm     95% 0.00 in 49.00 W/m2
12:36 31.4 °F 30.1 °F 29.67 in Calm     95% 0.00 in 44.00 W/m2
12:44 31.4 °F 30.1 °F 29.67 in Calm   2.0 mph 95% 0.00 in 51.00 W/m2
12:48 31.5 °F 30.5 °F 29.67 in West 1.0 mph 4.0 mph 96% 0.00 in 54.00 W/m2
12:54 31.5 °F 30.5 °F 29.67 in WSW 1.0 mph 2.0 mph 96% 0.00 in 49.00 W/m2
12:58 31.5 °F 30.5 °F 29.67 in WSW 1.0 mph 2.0 mph 96% 0.00 in 37.00 W/m2
13:04 31.5 °F 30.5 °F 29.68 in West 2.0 mph 2.0 mph 96% 0.00 in 35.00 W/m2
13:08 31.6 °F 30.6 °F 29.68 in WSW 3.0 mph 5.0 mph 96% 0.00 in 39.00 W/m2
13:14 31.7 °F 30.7 °F 29.68 in SW 4.0 mph 7.0 mph 96% 0.00 in 49.00 W/m2
13:18 31.7 °F 30.7 °F 29.68 in West 4.0 mph 7.0 mph 96% 0.00 in 67.00 W/m2
13:24 31.8 °F 30.8 °F 29.68 in WSW 3.0 mph 5.0 mph 96% 0.00 in 63.00 W/m2
13:28 32.0 °F 31.0 °F 29.68 in West 3.0 mph 6.0 mph 96% 0.00 in 56.00 W/m2
13:34 32.2 °F 31.2 °F 29.68 in WSW 4.0 mph 4.0 mph 96% 0.00 in 56.00 W/m2
13:38 32.3 °F 31.3 °F 29.68 in WSW 4.0 mph 6.0 mph 96% 0.00 in 62.00 W/m2
13:44 32.5 °F 31.2 °F 29.68 in WNW 4.0 mph 6.0 mph 95% 0.00 in 84.00 W/m2
13:48 32.6 °F 31.3 °F 29.68 in WSW 4.0 mph 6.0 mph 95% 0.00 in 83.00 W/m2
13:54 32.8 °F 31.5 °F 29.68 in WSW 3.0 mph 4.0 mph 95% 0.00 in 77.00 W/m2
13:58 32.9 °F 31.6 °F 29.68 in WSW 3.0 mph 6.0 mph 95% 0.00 in 74.00 W/m2
14:04 32.9 °F 31.6 °F 29.68 in West 3.0 mph 4.0 mph 95% 0.00 in 56.00 W/m2
14:10 32.8 °F 31.5 °F 29.68 in WSW 3.0 mph 3.0 mph 95% 0.00 in 51.00 W/m2
14:14 32.8 °F 31.5 °F 29.68 in WSW 2.0 mph 4.0 mph 95% 0.00 in 58.00 W/m2
14:18 32.9 °F 31.6 °F 29.68 in West 2.0 mph 6.0 mph 95% 0.00 in 100.00 W/m2
14:24 33.1 °F 31.8 °F 29.69 in West 3.0 mph 5.0 mph 95% 0.00 in 97.00 W/m2
14:28 33.1 °F 31.8 °F 29.68 in WSW 3.0 mph 5.0 mph 95% 0.00 in 118.00 W/m2
14:32 33.3 °F 32.0 °F 29.69 in WSW 3.0 mph 3.0 mph 95% 0.00 in 114.00 W/m2
14:40 33.3 °F 31.8 °F 29.69 in WSW 2.0 mph 2.0 mph 94% 0.00 in 63.00 W/m2
14:42 33.2 °F 31.9 °F 29.69 in WSW 2.0 mph 2.0 mph 95% 0.00 in 67.00 W/m2
14:48 33.1 °F 31.8 °F 29.69 in WSW 3.0 mph 4.0 mph 95% 0.00 in 42.00 W/m2
14:54 33.1 °F 31.8 °F 29.69 in WSW 3.0 mph 4.0 mph 95% 0.00 in 42.00 W/m2
15:00 33.1 °F 31.8 °F 29.69 in WSW 3.0 mph 3.0 mph 95% 0.00 in 42.00 W/m2
15:04 33.2 °F 31.9 °F 29.70 in WSW 3.0 mph 3.0 mph 95% 0.00 in 42.00 W/m2
15:10 33.2 °F 31.9 °F 29.70 in West 3.0 mph 3.0 mph 95% 0.00 in 42.00 W/m2
15:14 33.2 °F 31.9 °F 29.70 in WSW 3.0 mph 6.0 mph 95% 0.00 in 47.00 W/m2
15:18 33.2 °F 31.9 °F 29.70 in SW 3.0 mph 6.0 mph 95% 0.00 in 37.00 W/m2
15:24 33.1 °F 31.8 °F 29.70 in WSW 3.0 mph 3.0 mph 95% 0.00 in 19.00 W/m2
15:26 33.1 °F 31.8 °F 29.70 in WSW 3.0 mph 3.0 mph 95% 0.00 in 16.00 W/m2
15:34 33.0 °F 31.7 °F 29.71 in WSW 2.0 mph 4.0 mph 95% 0.00 in 19.00 W/m2
15:38 33.1 °F 31.8 °F 29.71 in WSW 3.0 mph 4.0 mph 95% 0.00 in 25.00 W/m2
15:44 33.1 °F 31.8 °F 29.72 in SSW 2.0 mph 4.0 mph 95% 0.00 in 33.00 W/m2
15:48 33.1 °F 31.8 °F 29.72 in WSW 2.0 mph 4.0 mph 95% 0.00 in 40.00 W/m2
15:54 33.3 °F 32.0 °F 29.72 in WSW 2.0 mph 5.0 mph 95% 0.00 in 25.00 W/m2
15:58 33.3 °F 32.0 °F 29.72 in WSW 2.0 mph 6.0 mph 95% 0.00 in 18.00 W/m2
16:04 33.5 °F 32.2 °F 29.72 in WSW 2.0 mph 6.0 mph 95% 0.00 in 19.00 W/m2
16:08 33.5 °F 32.2 °F 29.72 in WSW 3.0 mph 6.0 mph 95% 0.00 in 18.00 W/m2
16:14 33.5 °F 32.0 °F 29.73 in WSW 4.0 mph 10.0 mph 94% 0.00 in 16.00 W/m2
16:20 33.5 °F 32.0 °F 29.73 in SW 4.0 mph 4.0 mph 94% 0.00 in 12.00 W/m2
16:24 33.5 °F 32.0 °F 29.73 in WSW 4.0 mph 4.0 mph 94% 0.00 in 11.00 W/m2
16:28 33.5 °F 32.0 °F 29.73 in WSW 4.0 mph 4.0 mph 94% 0.00 in 9.00 W/m2
16:34 33.5 °F 32.0 °F 29.73 in West 3.0 mph 6.0 mph 94% 0.00 in 5.00 W/m2
16:38 33.5 °F 32.0 °F 29.73 in WSW 2.0 mph 6.0 mph 94% 0.00 in 0.00 W/m2
16:44 33.5 °F 32.0 °F 29.73 in West 2.0 mph 5.0 mph 94% 0.00 in 0.00 W/m2
16:46 33.6 °F 32.1 °F 29.73 in West 2.0 mph 5.0 mph 94% 0.00 in 0.00 W/m2
16:54 33.7 °F 31.9 °F 29.73 in West 3.0 mph 4.0 mph 93% 0.00 in 0.00 W/m2
16:58 33.8 °F 32.0 °F 29.73 in SSW 4.0 mph 4.0 mph 93% 0.00 in 0.00 W/m2
17:04 34.0 °F 32.2 °F 29.73 in WSW 3.0 mph 8.0 mph 93% 0.00 in 0.00 W/m2
17:08 34.0 °F 31.9 °F 29.73 in WSW 4.0 mph 8.0 mph 92% 0.00 in 0.00 W/m2
17:14 34.2 °F 32.1 °F 29.74 in WSW 4.0 mph 5.0 mph 92% 0.00 in 0.00 W/m2
17:18 34.2 °F 32.1 °F 29.74 in West 4.0 mph 5.0 mph 92% 0.00 in 0.00 W/m2
17:24 34.1 °F 32.0 °F 29.75 in West 4.0 mph 5.0 mph 92% 0.00 in 0.00 W/m2
17:28 34.2 °F 31.8 °F 29.75 in WSW 4.0 mph 6.0 mph 91% 0.00 in 0.00 W/m2
17:34 34.1 °F 32.0 °F 29.75 in SW 4.0 mph 4.0 mph 92% 0.00 in 0.00 W/m2
17:38 34.1 °F 32.0 °F 29.75 in West 3.0 mph 5.0 mph 92% 0.00 in 0.00 W/m2
17:44 34.1 °F 32.0 °F 29.75 in WSW 3.0 mph 4.0 mph 92% 0.00 in 0.00 W/m2
17:48 34.0 °F 31.9 °F 29.75 in WSW 3.0 mph 5.0 mph 92% 0.00 in 0.00 W/m2
17:54 34.1 °F 32.0 °F 29.75 in WSW 3.0 mph 3.0 mph 92% 0.00 in 0.00 W/m2
18:00 34.1 °F 32.0 °F 29.76 in WSW 4.0 mph 4.0 mph 92% 0.00 in 0.00 W/m2
18:04 34.3 °F 31.9 °F 29.76 in WSW 4.0 mph 4.0 mph 91% 0.00 in 0.00 W/m2
18:08 34.4 °F 32.0 °F 29.76 in SW 5.0 mph 9.0 mph 91% 0.00 in 0.00 W/m2
18:14 34.4 °F 32.0 °F 29.76 in West 5.0 mph 5.0 mph 91% 0.00 in 0.00 W/m2
18:20 34.4 °F 32.0 °F 29.77 in WSW 5.0 mph 6.0 mph 91% 0.00 in 0.00 W/m2
18:24 34.4 °F 32.0 °F 29.77 in WSW 4.0 mph 6.0 mph 91% 0.00 in 0.00 W/m2
18:28 34.3 °F 31.9 °F 29.77 in West 4.0 mph 6.0 mph 91% 0.00 in 0.00 W/m2
18:34 34.3 °F 32.2 °F 29.77 in WSW 3.0 mph 4.0 mph 92% 0.00 in 0.00 W/m2
18:38 34.2 °F 31.8 °F 29.78 in WSW 3.0 mph 5.0 mph 91% 0.00 in 0.00 W/m2
18:44 34.3 °F 31.9 °F 29.78 in WSW 4.0 mph 6.0 mph 91% 0.00 in 0.00 W/m2
18:48 34.2 °F 31.8 °F 29.78 in WNW 4.0 mph 6.0 mph 91% 0.00 in 0.00 W/m2
18:54 34.1 °F 32.0 °F 29.78 in West 2.0 mph 4.0 mph 92% 0.00 in 0.00 W/m2
19:00 34.1 °F 32.0 °F 29.78 in West 2.0 mph 7.0 mph 92% 0.00 in 0.00 W/m2
19:04 34.1 °F 31.7 °F 29.78 in WSW 4.0 mph 7.0 mph 91% 0.00 in 0.00 W/m2
19:08 34.2 °F 31.8 °F 29.78 in WSW 4.0 mph 7.0 mph 91% 0.00 in 0.00 W/m2
19:14 34.1 °F 31.7 °F 29.78 in WSW 4.0 mph 6.0 mph 91% 0.00 in 0.00 W/m2
19:18 34.2 °F 31.8 °F 29.78 in West 5.0 mph 6.0 mph 91% 0.00 in 0.00 W/m2
19:24 34.1 °F 31.7 °F 29.78 in WSW 4.0 mph 6.0 mph 91% 0.00 in 0.00 W/m2
19:26 34.1 °F 31.7 °F 29.78 in WSW 4.0 mph 6.0 mph 91% 0.00 in 0.00 W/m2
19:34 34.0 °F 31.9 °F 29.79 in West 3.0 mph 6.0 mph 92% 0.00 in 0.00 W/m2
19:40 34.1 °F 32.0 °F 29.79 in West 3.0 mph 3.0 mph 92% 0.00 in 0.00 W/m2
19:44 34.0 °F 31.9 °F 29.79 in West 3.0 mph 4.0 mph 92% 0.00 in 0.00 W/m2
19:48 34.0 °F 31.9 °F 29.80 in WSW 3.0 mph 5.0 mph 92% 0.00 in 0.00 W/m2
19:54 34.0 °F 31.9 °F 29.80 in West 4.0 mph 6.0 mph 92% 0.00 in 0.00 W/m2
19:58 34.0 °F 31.9 °F 29.80 in WSW 4.0 mph 6.0 mph 92% 0.00 in 0.00 W/m2
20:04 34.0 °F 31.9 °F 29.80 in WSW 3.0 mph 5.0 mph 92% 0.00 in 0.00 W/m2
20:08 34.0 °F 31.9 °F 29.81 in SW 3.0 mph 5.0 mph 92% 0.00 in 0.00 W/m2
20:14 34.0 °F 31.9 °F 29.81 in West 3.0 mph 4.0 mph 92% 0.00 in 0.00 W/m2
20:20 34.1 °F 32.0 °F 29.81 in WSW 3.0 mph 3.0 mph 92% 0.00 in 0.00 W/m2
20:24 34.1 °F 32.0 °F 29.81 in SW 3.0 mph 4.0 mph 92% 0.00 in 0.00 W/m2
20:28 34.2 °F 32.1 °F 29.81 in WSW 3.0 mph 4.0 mph 92% 0.00 in 0.00 W/m2
20:34 34.2 °F 32.1 °F 29.81 in WSW 3.0 mph 3.0 mph 92% 0.00 in 0.00 W/m2
20:38 34.4 °F 32.3 °F 29.81 in WSW 4.0 mph 4.0 mph 92% 0.00 in 0.00 W/m2
20:44 34.5 °F 32.1 °F 29.81 in WSW 5.0 mph 6.0 mph 91% 0.00 in 0.00 W/m2
20:48 34.5 °F 32.4 °F 29.81 in WSW 4.0 mph 6.0 mph 92% 0.00 in 0.00 W/m2
20:54 34.4 °F 32.3 °F 29.82 in West 3.0 mph 5.0 mph 92% 0.00 in 0.00 W/m2
20:58 34.4 °F 32.3 °F 29.82 in WSW 3.0 mph 8.0 mph 92% 0.00 in 0.00 W/m2
21:04 34.5 °F 32.1 °F 29.82 in WSW 4.0 mph 5.0 mph 91% 0.00 in 0.00 W/m2
21:08 34.4 °F 32.0 °F 29.82 in WSW 4.0 mph 7.0 mph 91% 0.00 in 0.00 W/m2
21:14 34.5 °F 32.1 °F 29.82 in West 3.0 mph 5.0 mph 91% 0.00 in 0.00 W/m2
21:18 34.5 °F 32.1 °F 29.82 in WSW 4.0 mph 7.0 mph 91% 0.00 in 0.00 W/m2
21:24 34.5 °F 32.1 °F 29.82 in WSW 3.0 mph 4.0 mph 91% 0.00 in 0.00 W/m2
21:28 34.4 °F 32.0 °F 29.82 in WSW 3.0 mph 4.0 mph 91% 0.00 in 0.00 W/m2
21:34 34.5 °F 32.1 °F 29.83 in West 4.0 mph 7.0 mph 91% 0.00 in 0.00 W/m2
21:38 34.4 °F 32.0 °F 29.83 in West 3.0 mph 7.0 mph 91% 0.00 in 0.00 W/m2
21:42 34.5 °F 32.1 °F 29.83 in WSW 3.0 mph 5.0 mph 91% 0.00 in 0.00 W/m2
21:48 34.6 °F 32.2 °F 29.84 in WSW 4.0 mph 8.0 mph 91% 0.00 in 0.00 W/m2
21:54 34.5 °F 31.9 °F 29.84 in WSW 4.0 mph 6.0 mph 90% 0.00 in 0.00 W/m2
21:58 34.5 °F 31.9 °F 29.84 in West 4.0 mph 10.0 mph 90% 0.00 in 0.00 W/m2
22:04 34.6 °F 32.0 °F 29.84 in SSW 4.0 mph 7.0 mph 90% 0.00 in 0.00 W/m2
22:08 34.5 °F 31.9 °F 29.84 in West 5.0 mph 8.0 mph 90% 0.00 in 0.00 W/m2
Country Meadow, Clay, NY, USA
Compliments of Weather Underground - 2 mb